sensor_id;sensor_type;location;lat;lon;timestamp;temperature;humidity
11043;DHT22;5574;48.786;10.120;2024-02-26T00:01:10;4.20;99.90
11043;DHT22;5574;48.786;10.120;2024-02-26T00:03:38;4.20;99.90
11043;DHT22;5574;48.786;10.120;2024-02-26T00:06:07;4.20;99.90
11043;DHT22;5574;48.786;10.120;2024-02-26T00:08:34;4.20;99.90
11043;DHT22;5574;48.786;10.120;2024-02-26T00:11:00;4.20;99.90
11043;DHT22;5574;48.786;10.120;2024-02-26T00:13:27;4.30;99.90
11043;DHT22;5574;48.786;10.120;2024-02-26T00:15:54;4.30;99.90
11043;DHT22;5574;48.786;10.120;2024-02-26T00:18:20;4.40;99.90
11043;DHT22;5574;48.786;10.120;2024-02-26T00:20:48;4.40;99.90
11043;DHT22;5574;48.786;10.120;2024-02-26T00:23:15;4.40;99.90
11043;DHT22;5574;48.786;10.120;2024-02-26T00:25:42;4.40;99.90
11043;DHT22;5574;48.786;10.120;2024-02-26T00:28:10;4.40;99.90
11043;DHT22;5574;48.786;10.120;2024-02-26T00:30:38;4.50;99.90
11043;DHT22;5574;48.786;10.120;2024-02-26T00:33:05;4.50;99.90
11043;DHT22;5574;48.786;10.120;2024-02-26T00:35:31;4.50;99.90
11043;DHT22;5574;48.786;10.120;2024-02-26T00:37:59;4.50;99.90
11043;DHT22;5574;48.786;10.120;2024-02-26T00:40:27;4.60;99.90
11043;DHT22;5574;48.786;10.120;2024-02-26T00:42:54;4.60;99.90
11043;DHT22;5574;48.786;10.120;2024-02-26T00:45:20;4.50;99.90
11043;DHT22;5574;48.786;10.120;2024-02-26T00:47:47;4.60;99.90
11043;DHT22;5574;48.786;10.120;2024-02-26T00:50:15;4.60;99.90
11043;DHT22;5574;48.786;10.120;2024-02-26T00:52:42;4.60;99.90
11043;DHT22;5574;48.786;10.120;2024-02-26T00:55:10;4.70;99.90
11043;DHT22;5574;48.786;10.120;2024-02-26T00:57:37;4.60;99.90
11043;DHT22;5574;48.786;10.120;2024-02-26T01:00:04;4.70;99.90
11043;DHT22;5574;48.786;10.120;2024-02-26T01:02:34;4.70;99.90
11043;DHT22;5574;48.786;10.120;2024-02-26T01:05:00;4.70;99.90
11043;DHT22;5574;48.786;10.120;2024-02-26T01:07:28;4.70;99.90
11043;DHT22;5574;48.786;10.120;2024-02-26T01:09:58;4.70;99.90
11043;DHT22;5574;48.786;10.120;2024-02-26T01:12:27;4.70;99.90
11043;DHT22;5574;48.786;10.120;2024-02-26T01:14:53;4.80;99.90
11043;DHT22;5574;48.786;10.120;2024-02-26T01:17:20;4.70;99.90
11043;DHT22;5574;48.786;10.120;2024-02-26T01:19:47;4.70;99.90
11043;DHT22;5574;48.786;10.120;2024-02-26T01:22:13;4.80;99.90
11043;DHT22;5574;48.786;10.120;2024-02-26T01:24:40;4.80;99.90
11043;DHT22;5574;48.786;10.120;2024-02-26T01:27:07;4.80;99.90
11043;DHT22;5574;48.786;10.120;2024-02-26T01:29:35;4.80;99.90
11043;DHT22;5574;48.786;10.120;2024-02-26T01:32:02;4.80;99.90
11043;DHT22;5574;48.786;10.120;2024-02-26T01:34:30;4.80;99.90
11043;DHT22;5574;48.786;10.120;2024-02-26T01:36:57;4.80;99.90
11043;DHT22;5574;48.786;10.120;2024-02-26T01:39:23;4.80;99.90
11043;DHT22;5574;48.786;10.120;2024-02-26T01:41:50;4.80;99.90
11043;DHT22;5574;48.786;10.120;2024-02-26T01:44:17;4.70;99.90
11043;DHT22;5574;48.786;10.120;2024-02-26T01:46:45;4.80;99.90
11043;DHT22;5574;48.786;10.120;2024-02-26T01:49:12;4.80;99.90
11043;DHT22;5574;48.786;10.120;2024-02-26T01:51:39;4.80;99.90
11043;DHT22;5574;48.786;10.120;2024-02-26T01:54:08;4.80;99.90
11043;DHT22;5574;48.786;10.120;2024-02-26T01:56:35;4.70;99.90
11043;DHT22;5574;48.786;10.120;2024-02-26T01:59:04;4.70;99.90
11043;DHT22;5574;48.786;10.120;2024-02-26T02:01:33;4.70;99.90
11043;DHT22;5574;48.786;10.120;2024-02-26T02:04:02;4.70;99.90
11043;DHT22;5574;48.786;10.120;2024-02-26T02:06:29;4.70;99.90
11043;DHT22;5574;48.786;10.120;2024-02-26T02:08:56;4.60;99.90
11043;DHT22;5574;48.786;10.120;2024-02-26T02:11:23;4.50;99.90
11043;DHT22;5574;48.786;10.120;2024-02-26T02:13:50;4.50;99.90
11043;DHT22;5574;48.786;10.120;2024-02-26T02:16:16;4.50;99.90
11043;DHT22;5574;48.786;10.120;2024-02-26T02:18:43;4.50;99.90
11043;DHT22;5574;48.786;10.120;2024-02-26T02:21:11;4.60;99.90
11043;DHT22;5574;48.786;10.120;2024-02-26T02:23:38;4.60;99.90
11043;DHT22;5574;48.786;10.120;2024-02-26T02:26:04;4.60;99.90
11043;DHT22;5574;48.786;10.120;2024-02-26T02:28:31;4.60;99.90
11043;DHT22;5574;48.786;10.120;2024-02-26T02:30:58;4.60;99.90
11043;DHT22;5574;48.786;10.120;2024-02-26T02:33:26;4.60;99.90
11043;DHT22;5574;48.786;10.120;2024-02-26T02:35:53;4.60;99.90
11043;DHT22;5574;48.786;10.120;2024-02-26T02:38:21;4.60;99.90
11043;DHT22;5574;48.786;10.120;2024-02-26T02:40:49;4.60;99.90
11043;DHT22;5574;48.786;10.120;2024-02-26T02:43:16;4.60;99.90
11043;DHT22;5574;48.786;10.120;2024-02-26T02:45:42;4.60;99.90
11043;DHT22;5574;48.786;10.120;2024-02-26T02:48:10;4.60;99.90
11043;DHT22;5574;48.786;10.120;2024-02-26T02:50:37;4.60;99.90
11043;DHT22;5574;48.786;10.120;2024-02-26T02:53:04;4.60;99.90
11043;DHT22;5574;48.786;10.120;2024-02-26T02:55:32;4.60;99.90
11043;DHT22;5574;48.786;10.120;2024-02-26T02:57:59;4.50;99.90
11043;DHT22;5574;48.786;10.120;2024-02-26T03:00:25;4.50;99.90
11043;DHT22;5574;48.786;10.120;2024-02-26T03:02:52;4.60;99.90
11043;DHT22;5574;48.786;10.120;2024-02-26T03:05:19;4.50;99.90
11043;DHT22;5574;48.786;10.120;2024-02-26T03:07:45;4.60;99.90
11043;DHT22;5574;48.786;10.120;2024-02-26T03:10:12;4.60;99.90
11043;DHT22;5574;48.786;10.120;2024-02-26T03:12:40;4.60;99.90
11043;DHT22;5574;48.786;10.120;2024-02-26T03:15:07;4.60;99.90
11043;DHT22;5574;48.786;10.120;2024-02-26T03:17:34;4.60;99.90
11043;DHT22;5574;48.786;10.120;2024-02-26T03:20:01;4.60;99.90
11043;DHT22;5574;48.786;10.120;2024-02-26T03:22:30;4.60;99.90
11043;DHT22;5574;48.786;10.120;2024-02-26T03:24:57;4.70;99.90
11043;DHT22;5574;48.786;10.120;2024-02-26T03:27:24;4.70;99.90
11043;DHT22;5574;48.786;10.120;2024-02-26T03:29:52;4.60;99.90
11043;DHT22;5574;48.786;10.120;2024-02-26T03:32:19;4.60;99.90
11043;DHT22;5574;48.786;10.120;2024-02-26T03:34:45;4.60;99.90
11043;DHT22;5574;48.786;10.120;2024-02-26T03:37:12;4.60;99.90
11043;DHT22;5574;48.786;10.120;2024-02-26T03:39:39;4.60;99.90
11043;DHT22;5574;48.786;10.120;2024-02-26T03:42:06;4.60;99.90
11043;DHT22;5574;48.786;10.120;2024-02-26T03:44:32;4.60;99.90
11043;DHT22;5574;48.786;10.120;2024-02-26T03:47:00;4.60;99.90
11043;DHT22;5574;48.786;10.120;2024-02-26T03:49:27;4.60;99.90
11043;DHT22;5574;48.786;10.120;2024-02-26T03:51:54;4.60;99.90
11043;DHT22;5574;48.786;10.120;2024-02-26T03:54:21;4.60;99.90
11043;DHT22;5574;48.786;10.120;2024-02-26T03:56:48;4.60;99.90
11043;DHT22;5574;48.786;10.120;2024-02-26T03:59:15;4.60;99.90
11043;DHT22;5574;48.786;10.120;2024-02-26T04:01:45;4.60;99.90
11043;DHT22;5574;48.786;10.120;2024-02-26T04:04:13;4.60;99.90
11043;DHT22;5574;48.786;10.120;2024-02-26T04:06:44;4.70;99.90
11043;DHT22;5574;48.786;10.120;2024-02-26T04:09:11;4.70;99.90
11043;DHT22;5574;48.786;10.120;2024-02-26T04:11:37;4.80;99.90
11043;DHT22;5574;48.786;10.120;2024-02-26T04:14:04;4.70;99.90
11043;DHT22;5574;48.786;10.120;2024-02-26T04:16:31;4.70;99.90
11043;DHT22;5574;48.786;10.120;2024-02-26T04:18:58;4.70;99.90
11043;DHT22;5574;48.786;10.120;2024-02-26T04:21:26;4.70;99.90
11043;DHT22;5574;48.786;10.120;2024-02-26T04:23:52;4.70;99.90
11043;DHT22;5574;48.786;10.120;2024-02-26T04:26:20;4.70;99.90
11043;DHT22;5574;48.786;10.120;2024-02-26T04:28:47;4.70;99.90
11043;DHT22;5574;48.786;10.120;2024-02-26T04:31:14;4.70;99.90
11043;DHT22;5574;48.786;10.120;2024-02-26T04:33:40;4.70;99.90
11043;DHT22;5574;48.786;10.120;2024-02-26T04:36:12;4.70;99.90
11043;DHT22;5574;48.786;10.120;2024-02-26T04:38:41;4.70;99.90
11043;DHT22;5574;48.786;10.120;2024-02-26T04:41:07;4.70;99.90
11043;DHT22;5574;48.786;10.120;2024-02-26T04:43:34;4.70;99.90
11043;DHT22;5574;48.786;10.120;2024-02-26T04:46:06;4.70;99.90
11043;DHT22;5574;48.786;10.120;2024-02-26T04:48:33;4.80;99.90
11043;DHT22;5574;48.786;10.120;2024-02-26T04:51:00;4.80;99.90
11043;DHT22;5574;48.786;10.120;2024-02-26T04:53:27;4.80;99.90
11043;DHT22;5574;48.786;10.120;2024-02-26T04:55:55;4.80;99.90
11043;DHT22;5574;48.786;10.120;2024-02-26T04:58:22;4.80;99.90
11043;DHT22;5574;48.786;10.120;2024-02-26T05:00:49;4.80;99.90
11043;DHT22;5574;48.786;10.120;2024-02-26T05:03:16;4.80;99.90
11043;DHT22;5574;48.786;10.120;2024-02-26T05:05:43;4.80;99.90
11043;DHT22;5574;48.786;10.120;2024-02-26T05:08:10;4.80;99.90
11043;DHT22;5574;48.786;10.120;2024-02-26T05:10:37;4.70;99.90
11043;DHT22;5574;48.786;10.120;2024-02-26T05:13:07;4.80;99.90
11043;DHT22;5574;48.786;10.120;2024-02-26T05:15:34;4.80;99.90
11043;DHT22;5574;48.786;10.120;2024-02-26T05:18:01;4.80;99.90
11043;DHT22;5574;48.786;10.120;2024-02-26T05:20:27;4.80;99.90
11043;DHT22;5574;48.786;10.120;2024-02-26T05:22:54;4.80;99.90
11043;DHT22;5574;48.786;10.120;2024-02-26T05:25:21;4.90;99.90
11043;DHT22;5574;48.786;10.120;2024-02-26T05:27:47;4.90;99.90
11043;DHT22;5574;48.786;10.120;2024-02-26T05:30:16;4.90;99.90
11043;DHT22;5574;48.786;10.120;2024-02-26T05:32:42;4.90;99.90
11043;DHT22;5574;48.786;10.120;2024-02-26T05:35:09;4.90;99.90
11043;DHT22;5574;48.786;10.120;2024-02-26T05:37:36;4.90;99.90
11043;DHT22;5574;48.786;10.120;2024-02-26T05:40:03;5.00;99.90
11043;DHT22;5574;48.786;10.120;2024-02-26T05:42:31;4.90;99.90
11043;DHT22;5574;48.786;10.120;2024-02-26T05:44:59;4.90;99.90
11043;DHT22;5574;48.786;10.120;2024-02-26T05:47:32;4.90;99.90
11043;DHT22;5574;48.786;10.120;2024-02-26T05:49:58;4.90;99.90
11043;DHT22;5574;48.786;10.120;2024-02-26T05:52:26;4.90;99.90
11043;DHT22;5574;48.786;10.120;2024-02-26T05:54:53;5.00;99.90
11043;DHT22;5574;48.786;10.120;2024-02-26T05:57:19;5.00;99.90
11043;DHT22;5574;48.786;10.120;2024-02-26T05:59:46;5.00;99.90
11043;DHT22;5574;48.786;10.120;2024-02-26T06:02:13;5.00;99.90
11043;DHT22;5574;48.786;10.120;2024-02-26T06:04:41;5.00;99.90
11043;DHT22;5574;48.786;10.120;2024-02-26T06:07:08;5.00;99.90
11043;DHT22;5574;48.786;10.120;2024-02-26T06:09:34;5.00;99.90
11043;DHT22;5574;48.786;10.120;2024-02-26T06:12:01;5.10;99.90
11043;DHT22;5574;48.786;10.120;2024-02-26T06:14:28;5.10;99.90
11043;DHT22;5574;48.786;10.120;2024-02-26T06:16:54;5.00;99.90
11043;DHT22;5574;48.786;10.120;2024-02-26T06:19:21;5.00;99.90
11043;DHT22;5574;48.786;10.120;2024-02-26T06:21:49;5.00;99.90
11043;DHT22;5574;48.786;10.120;2024-02-26T06:24:16;5.00;99.90
11043;DHT22;5574;48.786;10.120;2024-02-26T06:26:43;5.10;99.90
11043;DHT22;5574;48.786;10.120;2024-02-26T06:29:10;5.10;99.90
11043;DHT22;5574;48.786;10.120;2024-02-26T06:31:37;5.10;99.90
11043;DHT22;5574;48.786;10.120;2024-02-26T06:34:04;5.10;99.90
11043;DHT22;5574;48.786;10.120;2024-02-26T06:36:31;5.10;99.90
11043;DHT22;5574;48.786;10.120;2024-02-26T06:39:00;5.20;99.90
11043;DHT22;5574;48.786;10.120;2024-02-26T06:41:26;5.20;99.90
11043;DHT22;5574;48.786;10.120;2024-02-26T06:43:55;5.20;99.90
11043;DHT22;5574;48.786;10.120;2024-02-26T06:46:22;5.20;99.90
11043;DHT22;5574;48.786;10.120;2024-02-26T06:48:48;5.20;99.90
11043;DHT22;5574;48.786;10.120;2024-02-26T06:51:15;5.20;99.90
11043;DHT22;5574;48.786;10.120;2024-02-26T06:53:42;5.20;99.90
11043;DHT22;5574;48.786;10.120;2024-02-26T06:56:10;5.20;99.90
11043;DHT22;5574;48.786;10.120;2024-02-26T06:58:36;5.20;99.90
11043;DHT22;5574;48.786;10.120;2024-02-26T07:01:03;5.20;99.90
11043;DHT22;5574;48.786;10.120;2024-02-26T07:03:30;5.20;99.90
11043;DHT22;5574;48.786;10.120;2024-02-26T07:05:58;5.30;99.90
11043;DHT22;5574;48.786;10.120;2024-02-26T07:08:25;5.30;99.90
11043;DHT22;5574;48.786;10.120;2024-02-26T07:10:51;5.30;99.90
11043;DHT22;5574;48.786;10.120;2024-02-26T07:13:19;5.40;99.90
11043;DHT22;5574;48.786;10.120;2024-02-26T07:15:46;5.40;99.90
11043;DHT22;5574;48.786;10.120;2024-02-26T07:18:13;5.40;99.90
11043;DHT22;5574;48.786;10.120;2024-02-26T07:20:39;5.40;99.90
11043;DHT22;5574;48.786;10.120;2024-02-26T07:23:06;5.40;99.90
11043;DHT22;5574;48.786;10.120;2024-02-26T07:25:33;5.40;99.90
11043;DHT22;5574;48.786;10.120;2024-02-26T07:28:00;5.50;99.90
11043;DHT22;5574;48.786;10.120;2024-02-26T07:30:28;5.50;99.90
11043;DHT22;5574;48.786;10.120;2024-02-26T07:32:54;5.50;99.90
11043;DHT22;5574;48.786;10.120;2024-02-26T07:35:22;5.50;99.90
11043;DHT22;5574;48.786;10.120;2024-02-26T07:37:48;5.60;99.90
11043;DHT22;5574;48.786;10.120;2024-02-26T07:40:16;5.60;99.90
11043;DHT22;5574;48.786;10.120;2024-02-26T07:42:42;5.70;99.90
11043;DHT22;5574;48.786;10.120;2024-02-26T07:45:10;5.70;99.90
11043;DHT22;5574;48.786;10.120;2024-02-26T07:47:38;5.80;99.90
11043;DHT22;5574;48.786;10.120;2024-02-26T07:50:07;5.80;99.90
11043;DHT22;5574;48.786;10.120;2024-02-26T07:52:34;5.90;99.90
11043;DHT22;5574;48.786;10.120;2024-02-26T07:55:00;5.90;99.90
11043;DHT22;5574;48.786;10.120;2024-02-26T07:57:27;6.10;99.90
11043;DHT22;5574;48.786;10.120;2024-02-26T07:59:54;6.10;99.90
11043;DHT22;5574;48.786;10.120;2024-02-26T08:02:21;6.20;99.90
11043;DHT22;5574;48.786;10.120;2024-02-26T08:04:49;6.30;99.90
11043;DHT22;5574;48.786;10.120;2024-02-26T08:07:16;6.40;99.90
11043;DHT22;5574;48.786;10.120;2024-02-26T08:09:43;6.40;99.90
11043;DHT22;5574;48.786;10.120;2024-02-26T08:12:09;6.50;99.90
11043;DHT22;5574;48.786;10.120;2024-02-26T08:14:36;6.60;99.90
11043;DHT22;5574;48.786;10.120;2024-02-26T08:17:03;6.70;99.90
11043;DHT22;5574;48.786;10.120;2024-02-26T08:19:30;6.80;99.90
11043;DHT22;5574;48.786;10.120;2024-02-26T08:21:58;7.00;99.90
11043;DHT22;5574;48.786;10.120;2024-02-26T08:24:24;7.20;99.90
11043;DHT22;5574;48.786;10.120;2024-02-26T08:26:51;7.20;99.90
11043;DHT22;5574;48.786;10.120;2024-02-26T08:29:18;7.20;99.90
11043;DHT22;5574;48.786;10.120;2024-02-26T08:31:44;7.10;99.90
11043;DHT22;5574;48.786;10.120;2024-02-26T08:34:11;7.10;99.90
11043;DHT22;5574;48.786;10.120;2024-02-26T08:36:38;7.10;99.90
11043;DHT22;5574;48.786;10.120;2024-02-26T08:39:06;7.00;99.90
11043;DHT22;5574;48.786;10.120;2024-02-26T08:41:34;7.00;99.90
11043;DHT22;5574;48.786;10.120;2024-02-26T08:44:01;7.00;99.90
11043;DHT22;5574;48.786;10.120;2024-02-26T08:46:27;7.00;99.90
11043;DHT22;5574;48.786;10.120;2024-02-26T08:48:54;7.00;99.90
11043;DHT22;5574;48.786;10.120;2024-02-26T08:51:21;7.00;99.90
11043;DHT22;5574;48.786;10.120;2024-02-26T08:53:47;7.00;99.90
11043;DHT22;5574;48.786;10.120;2024-02-26T08:56:16;7.00;99.90
11043;DHT22;5574;48.786;10.120;2024-02-26T08:58:44;7.00;99.90
11043;DHT22;5574;48.786;10.120;2024-02-26T09:01:11;7.00;99.90
11043;DHT22;5574;48.786;10.120;2024-02-26T09:03:38;7.00;99.90
11043;DHT22;5574;48.786;10.120;2024-02-26T09:06:05;7.00;99.90
11043;DHT22;5574;48.786;10.120;2024-02-26T09:08:32;7.10;99.90
11043;DHT22;5574;48.786;10.120;2024-02-26T09:10:59;7.10;99.90
11043;DHT22;5574;48.786;10.120;2024-02-26T09:13:27;7.10;99.90
11043;DHT22;5574;48.786;10.120;2024-02-26T09:15:53;7.20;99.90
11043;DHT22;5574;48.786;10.120;2024-02-26T09:18:21;7.20;99.90
11043;DHT22;5574;48.786;10.120;2024-02-26T09:20:47;7.30;99.90
11043;DHT22;5574;48.786;10.120;2024-02-26T09:23:15;7.30;99.90
11043;DHT22;5574;48.786;10.120;2024-02-26T09:25:42;7.30;99.90
11043;DHT22;5574;48.786;10.120;2024-02-26T09:28:09;7.40;99.90
11043;DHT22;5574;48.786;10.120;2024-02-26T09:30:37;7.40;99.90
11043;DHT22;5574;48.786;10.120;2024-02-26T09:33:04;7.40;99.90
11043;DHT22;5574;48.786;10.120;2024-02-26T09:35:31;7.50;99.90
11043;DHT22;5574;48.786;10.120;2024-02-26T09:37:57;7.60;99.90
11043;DHT22;5574;48.786;10.120;2024-02-26T09:40:24;7.60;99.90
11043;DHT22;5574;48.786;10.120;2024-02-26T09:42:59;7.60;99.90
11043;DHT22;5574;48.786;10.120;2024-02-26T09:45:26;7.70;99.90
11043;DHT22;5574;48.786;10.120;2024-02-26T09:47:56;7.70;99.90
11043;DHT22;5574;48.786;10.120;2024-02-26T09:50:22;7.80;99.90
11043;DHT22;5574;48.786;10.120;2024-02-26T09:52:49;7.90;99.90
11043;DHT22;5574;48.786;10.120;2024-02-26T09:55:17;7.90;99.90
11043;DHT22;5574;48.786;10.120;2024-02-26T09:57:45;7.90;99.90
11043;DHT22;5574;48.786;10.120;2024-02-26T10:00:17;8.00;99.90
11043;DHT22;5574;48.786;10.120;2024-02-26T10:02:45;8.00;99.90
11043;DHT22;5574;48.786;10.120;2024-02-26T10:05:15;8.10;99.90
11043;DHT22;5574;48.786;10.120;2024-02-26T10:07:44;8.20;99.90
11043;DHT22;5574;48.786;10.120;2024-02-26T10:10:10;8.40;99.90
11043;DHT22;5574;48.786;10.120;2024-02-26T10:12:37;8.60;99.90
11043;DHT22;5574;48.786;10.120;2024-02-26T10:15:04;8.70;99.90
11043;DHT22;5574;48.786;10.120;2024-02-26T10:17:31;8.90;99.90
11043;DHT22;5574;48.786;10.120;2024-02-26T10:20:11;9.00;99.90
11043;DHT22;5574;48.786;10.120;2024-02-26T10:22:41;9.00;99.90
11043;DHT22;5574;48.786;10.120;2024-02-26T10:25:08;9.10;99.90
11043;DHT22;5574;48.786;10.120;2024-02-26T10:27:35;9.10;99.90
11043;DHT22;5574;48.786;10.120;2024-02-26T10:30:03;9.10;99.90
11043;DHT22;5574;48.786;10.120;2024-02-26T10:32:30;9.10;99.90
11043;DHT22;5574;48.786;10.120;2024-02-26T10:34:57;9.10;99.90
11043;DHT22;5574;48.786;10.120;2024-02-26T10:37:24;9.10;99.90
11043;DHT22;5574;48.786;10.120;2024-02-26T10:39:53;9.10;99.90
11043;DHT22;5574;48.786;10.120;2024-02-26T10:42:19;9.20;99.90
11043;DHT22;5574;48.786;10.120;2024-02-26T10:44:46;9.30;99.90
11043;DHT22;5574;48.786;10.120;2024-02-26T10:47:14;9.50;99.90
11043;DHT22;5574;48.786;10.120;2024-02-26T10:49:46;9.70;99.90
11043;DHT22;5574;48.786;10.120;2024-02-26T10:52:14;10.00;99.90
11043;DHT22;5574;48.786;10.120;2024-02-26T10:54:41;10.20;99.90
11043;DHT22;5574;48.786;10.120;2024-02-26T10:57:13;10.40;99.90
11043;DHT22;5574;48.786;10.120;2024-02-26T10:59:42;10.60;99.90
11043;DHT22;5574;48.786;10.120;2024-02-26T11:02:10;10.80;99.90
11043;DHT22;5574;48.786;10.120;2024-02-26T11:04:37;11.10;99.90
11043;DHT22;5574;48.786;10.120;2024-02-26T11:07:05;11.50;99.90
11043;DHT22;5574;48.786;10.120;2024-02-26T11:09:34;11.30;99.90
11043;DHT22;5574;48.786;10.120;2024-02-26T11:12:02;11.20;99.90
11043;DHT22;5574;48.786;10.120;2024-02-26T11:14:37;11.20;99.90
11043;DHT22;5574;48.786;10.120;2024-02-26T11:17:06;11.10;99.90
11043;DHT22;5574;48.786;10.120;2024-02-26T11:19:35;11.10;99.90
11043;DHT22;5574;48.786;10.120;2024-02-26T11:22:02;11.10;99.90
11043;DHT22;5574;48.786;10.120;2024-02-26T11:24:29;11.10;99.90
11043;DHT22;5574;48.786;10.120;2024-02-26T11:26:59;11.10;99.90
11043;DHT22;5574;48.786;10.120;2024-02-26T11:29:32;11.10;99.90
11043;DHT22;5574;48.786;10.120;2024-02-26T11:32:02;11.20;99.90
11043;DHT22;5574;48.786;10.120;2024-02-26T11:34:28;11.10;99.90
11043;DHT22;5574;48.786;10.120;2024-02-26T11:36:56;11.10;99.00
11043;DHT22;5574;48.786;10.120;2024-02-26T11:39:23;11.00;98.90
11043;DHT22;5574;48.786;10.120;2024-02-26T11:41:50;10.90;99.30
11043;DHT22;5574;48.786;10.120;2024-02-26T11:44:28;10.80;99.10
11043;DHT22;5574;48.786;10.120;2024-02-26T11:46:56;10.80;99.70
11043;DHT22;5574;48.786;10.120;2024-02-26T11:49:32;10.90;99.90
11043;DHT22;5574;48.786;10.120;2024-02-26T11:51:59;10.90;99.50
11043;DHT22;5574;48.786;10.120;2024-02-26T11:54:46;10.90;99.90
11043;DHT22;5574;48.786;10.120;2024-02-26T11:57:26;10.90;99.90
11043;DHT22;5574;48.786;10.120;2024-02-26T11:59:54;10.90;99.90
11043;DHT22;5574;48.786;10.120;2024-02-26T12:02:40;10.90;99.60
11043;DHT22;5574;48.786;10.120;2024-02-26T12:05:10;10.90;99.90
11043;DHT22;5574;48.786;10.120;2024-02-26T12:07:39;10.90;99.80
11043;DHT22;5574;48.786;10.120;2024-02-26T12:10:25;10.90;99.90
11043;DHT22;5574;48.786;10.120;2024-02-26T12:12:58;10.90;99.90
11043;DHT22;5574;48.786;10.120;2024-02-26T12:15:30;11.00;99.90
11043;DHT22;5574;48.786;10.120;2024-02-26T12:17:58;10.90;99.40
11043;DHT22;5574;48.786;10.120;2024-02-26T12:20:28;11.00;99.20
11043;DHT22;5574;48.786;10.120;2024-02-26T12:22:54;11.00;99.20
11043;DHT22;5574;48.786;10.120;2024-02-26T12:25:24;11.00;99.50
11043;DHT22;5574;48.786;10.120;2024-02-26T12:27:51;10.90;98.90
11043;DHT22;5574;48.786;10.120;2024-02-26T12:30:18;10.90;99.30
11043;DHT22;5574;48.786;10.120;2024-02-26T12:32:45;10.90;99.60
11043;DHT22;5574;48.786;10.120;2024-02-26T12:35:12;10.90;99.80
11043;DHT22;5574;48.786;10.120;2024-02-26T12:37:40;10.90;99.90
11043;DHT22;5574;48.786;10.120;2024-02-26T12:40:08;10.90;99.90
11043;DHT22;5574;48.786;10.120;2024-02-26T12:42:35;10.90;99.90
11043;DHT22;5574;48.786;10.120;2024-02-26T12:45:06;10.90;99.90
11043;DHT22;5574;48.786;10.120;2024-02-26T12:47:36;10.80;99.90
11043;DHT22;5574;48.786;10.120;2024-02-26T12:50:02;10.80;99.90
11043;DHT22;5574;48.786;10.120;2024-02-26T12:52:30;10.80;99.90
11043;DHT22;5574;48.786;10.120;2024-02-26T12:54:59;10.70;99.90
11043;DHT22;5574;48.786;10.120;2024-02-26T12:57:26;10.70;99.90
11043;DHT22;5574;48.786;10.120;2024-02-26T12:59:55;10.70;99.90
11043;DHT22;5574;48.786;10.120;2024-02-26T13:02:23;10.70;99.90
11043;DHT22;5574;48.786;10.120;2024-02-26T13:17:55;10.70;99.90
11043;DHT22;5574;48.786;10.120;2024-02-26T13:20:28;10.90;99.90
11043;DHT22;5574;48.786;10.120;2024-02-26T13:23:02;10.80;99.90
11043;DHT22;5574;48.786;10.120;2024-02-26T13:25:30;10.80;99.90
11043;DHT22;5574;48.786;10.120;2024-02-26T13:28:08;10.80;99.90
11043;DHT22;5574;48.786;10.120;2024-02-26T13:30:35;10.70;99.70
11043;DHT22;5574;48.786;10.120;2024-02-26T13:33:09;10.60;99.90
11043;DHT22;5574;48.786;10.120;2024-02-26T13:35:36;10.60;99.90
11043;DHT22;5574;48.786;10.120;2024-02-26T13:38:04;10.50;99.90
11043;DHT22;5574;48.786;10.120;2024-02-26T13:40:31;10.50;99.90
11043;DHT22;5574;48.786;10.120;2024-02-26T13:42:58;10.40;99.90
11043;DHT22;5574;48.786;10.120;2024-02-26T13:45:24;10.40;99.80
11043;DHT22;5574;48.786;10.120;2024-02-26T13:47:51;10.30;99.40
11043;DHT22;5574;48.786;10.120;2024-02-26T13:50:19;10.30;99.60
11043;DHT22;5574;48.786;10.120;2024-02-26T13:52:48;10.30;99.90
11043;DHT22;5574;48.786;10.120;2024-02-26T13:55:18;10.30;99.80
11043;DHT22;5574;48.786;10.120;2024-02-26T13:57:46;10.20;99.90
11043;DHT22;5574;48.786;10.120;2024-02-26T14:00:14;10.20;99.40
11043;DHT22;5574;48.786;10.120;2024-02-26T14:02:41;10.20;99.10
11043;DHT22;5574;48.786;10.120;2024-02-26T14:05:07;10.20;99.90
11043;DHT22;5574;48.786;10.120;2024-02-26T14:07:35;10.20;99.90
11043;DHT22;5574;48.786;10.120;2024-02-26T14:10:02;10.20;99.70
11043;DHT22;5574;48.786;10.120;2024-02-26T14:12:29;10.30;99.90
11043;DHT22;5574;48.786;10.120;2024-02-26T14:14:55;10.30;99.90
11043;DHT22;5574;48.786;10.120;2024-02-26T14:17:24;10.30;99.70
11043;DHT22;5574;48.786;10.120;2024-02-26T14:19:51;10.30;99.70
11043;DHT22;5574;48.786;10.120;2024-02-26T14:22:17;10.40;99.90
11043;DHT22;5574;48.786;10.120;2024-02-26T14:24:44;10.30;99.40
11043;DHT22;5574;48.786;10.120;2024-02-26T14:27:13;10.30;99.90
11043;DHT22;5574;48.786;10.120;2024-02-26T14:29:41;10.30;99.00
11043;DHT22;5574;48.786;10.120;2024-02-26T14:32:08;10.20;99.40
11043;DHT22;5574;48.786;10.120;2024-02-26T14:34:35;10.30;99.00
11043;DHT22;5574;48.786;10.120;2024-02-26T14:37:02;10.20;98.80
11043;DHT22;5574;48.786;10.120;2024-02-26T14:39:29;10.30;99.20
11043;DHT22;5574;48.786;10.120;2024-02-26T14:41:58;10.30;99.40
11043;DHT22;5574;48.786;10.120;2024-02-26T14:44:25;10.30;99.20
11043;DHT22;5574;48.786;10.120;2024-02-26T14:46:52;10.20;98.70
11043;DHT22;5574;48.786;10.120;2024-02-26T14:49:19;10.20;99.10
11043;DHT22;5574;48.786;10.120;2024-02-26T14:51:46;10.20;99.30
11043;DHT22;5574;48.786;10.120;2024-02-26T14:54:13;10.20;99.10
11043;DHT22;5574;48.786;10.120;2024-02-26T14:56:40;10.20;99.40
11043;DHT22;5574;48.786;10.120;2024-02-26T14:59:08;10.30;98.90
11043;DHT22;5574;48.786;10.120;2024-02-26T15:01:34;10.20;99.10
11043;DHT22;5574;48.786;10.120;2024-02-26T15:04:01;10.20;99.20
11043;DHT22;5574;48.786;10.120;2024-02-26T15:06:29;10.20;99.90
11043;DHT22;5574;48.786;10.120;2024-02-26T15:08:55;10.20;99.90
11043;DHT22;5574;48.786;10.120;2024-02-26T15:11:22;10.20;99.90
11043;DHT22;5574;48.786;10.120;2024-02-26T15:13:49;10.20;99.90
11043;DHT22;5574;48.786;10.120;2024-02-26T15:16:20;10.20;99.90
11043;DHT22;5574;48.786;10.120;2024-02-26T15:18:47;10.30;99.50
11043;DHT22;5574;48.786;10.120;2024-02-26T15:21:14;10.30;99.40
11043;DHT22;5574;48.786;10.120;2024-02-26T15:23:43;10.30;99.90
11043;DHT22;5574;48.786;10.120;2024-02-26T15:26:10;10.20;99.10
11043;DHT22;5574;48.786;10.120;2024-02-26T15:28:36;10.20;99.10
11043;DHT22;5574;48.786;10.120;2024-02-26T15:31:03;10.20;99.20
11043;DHT22;5574;48.786;10.120;2024-02-26T15:33:31;10.10;99.90
11043;DHT22;5574;48.786;10.120;2024-02-26T15:35:58;10.10;99.70
11043;DHT22;5574;48.786;10.120;2024-02-26T15:38:24;10.10;99.90
11043;DHT22;5574;48.786;10.120;2024-02-26T15:40:52;10.10;99.90
11043;DHT22;5574;48.786;10.120;2024-02-26T15:43:19;10.10;99.70
11043;DHT22;5574;48.786;10.120;2024-02-26T15:45:47;10.10;99.50
11043;DHT22;5574;48.786;10.120;2024-02-26T15:48:13;10.00;99.30
11043;DHT22;5574;48.786;10.120;2024-02-26T15:50:42;10.00;99.90
11043;DHT22;5574;48.786;10.120;2024-02-26T15:53:09;10.00;99.80
11043;DHT22;5574;48.786;10.120;2024-02-26T15:55:35;10.00;99.40
11043;DHT22;5574;48.786;10.120;2024-02-26T15:58:02;10.00;98.90